Flight Track Log - Related Links

Times and Time Zones

All times are in EDT time to prevent confusion due to time zone crossing. See the ASQ6151 flight status page for this flight to view local times or setup timezone preferences in your user account.

Time Position Orientation Groundspeed Altitude Reporting Facility
EDT Latitude Longitude Course Direction KTS MPH feet Rate Location/Type
Tue 01:34:38 PM 41.9667 -87.9833 270° West 192 221 3,200  Level Chicago TRACON
Tue 01:35:38 PM 41.9667 -88.0500 270° West 220 253 4,900 1,700 Climbing Chicago TRACON
Tue 01:36:38 PM 41.9667 -88.1500 270° West 237 273 6,600 2,060 Climbing Chicago TRACON
Tue 01:37:52 PM 42.0133 -88.2361 306° West 263 303 9,500 2,250 Climbing Chicago Center
Tue 01:38:54 PM 42.0267 -88.3297 281° West 266 306 11,700 1,694 Climbing Chicago Center
Tue 01:39:56 PM 42.0311 -88.4328 273° West 274 315 13,000 1,355 Climbing Chicago Center
Tue 01:40:00 PM 41.9667 -88.7371 270° West  Level FlightAware Approximate
Tue 01:40:58 PM 42.0508 -88.5722 281° West 320 368 14,500  Level Chicago Center
Tue 01:42:00 PM 42.0706 -88.6928 282° West 331 381 16,000 1,403 Climbing Chicago Center
Tue 01:43:02 PM 42.0728 -88.8181 271° West 337 388 17,400 1,452 Climbing Chicago Center
Tue 01:44:04 PM 42.0739 -88.9394 271° West 336 387 19,000 1,597 Climbing Chicago Center
Tue 01:45:06 PM 42.0739 -89.0922 270° West 346 398 20,700 1,536 Climbing Chicago Center
Tue 01:46:09 PM 42.0703 -89.2297 268° West 354 407 22,200 1,440 Climbing Chicago Center
Tue 01:47:11 PM 42.0644 -89.3642 267° West 360 414 23,700 1,355 Climbing Chicago Center
Tue 01:48:13 PM 42.0644 -89.4961 270° West 359 413 25,000 1,161 Climbing Chicago Center
Tue 01:49:15 PM 42.0683 -89.6461 272° West 369 425 26,100 919 Climbing Chicago Center
Tue 01:50:17 PM 42.0644 -89.7700 268° West 373 429 26,900 919 Climbing Chicago Center
Tue 01:51:19 PM 42.0667 -89.9275 271° West 384 442 28,000 1,016 Climbing Chicago Center
Tue 01:52:21 PM 42.0683 -90.0711 271° West 388 447 29,000 968 Climbing Chicago Center
Tue 01:53:23 PM 42.0697 -90.2136 271° West 385 443 30,000 1,016 Climbing Chicago Center
Tue 01:54:25 PM 42.0717 -90.3853 271° West 385 443 31,100 1,016 Climbing Chicago Center
Tue 01:55:27 PM 42.0714 -90.5319 270° West 392 451 32,100 968 Climbing Chicago Center
Tue 01:56:29 PM 42.0719 -90.6794 270° West 396 456 33,100 968 Climbing Chicago Center
Tue 01:57:31 PM 42.0736 -90.8269 271° West 397 457 34,100 919 Climbing Chicago Center
Tue 01:58:33 PM 42.0792 -90.9750 273° West 398 458 35,000 919 Climbing Chicago Center
Tue 01:59:35 PM 42.0903 -91.1528 275° West 399 459 36,000 484 Climbing Chicago Center
Tue 02:00:37 PM 42.1011 -91.3014 276° West 400 460 36,000  Level Chicago Center
Tue 02:01:39 PM 42.1114 -91.4519 275° West 404 465 36,000  Level Chicago Center
Tue 02:02:41 PM 42.1219 -91.5997 276° West 400 460 36,000  Level Chicago Center
Tue 02:03:43 PM 42.1322 -91.7458 275° West 395 455 36,000  Level Chicago Center
Tue 02:04:45 PM 42.1428 -91.8897 276° West 389 448 36,000  Level Chicago Center
Tue 02:05:47 PM 42.1650 -92.0597 280° West 386 444 36,000  Level Chicago Center
Tue 02:06:43 PM 42.1839 -92.1775 282° West 389 448 36,000  Level Minneapolis Center
Tue 02:07:45 PM 42.2056 -92.3175 282° West 387 445 36,000  Level Minneapolis Center
Tue 02:08:47 PM 42.2289 -92.4583 283° West 387 445 36,000  Level Minneapolis Center
Tue 02:09:49 PM 42.2628 -92.6258 285° West 387 445 36,000  Level Minneapolis Center
Tue 02:10:50 PM 42.2903 -92.7622 285° West 382 440 36,000  Level Minneapolis Center
Tue 02:11:52 PM 42.3178 -92.8975 285° West 377 434 36,000  Level Minneapolis Center
Tue 02:12:54 PM 42.3478 -93.0350 286° West 383 441 36,000  Level Minneapolis Center
Tue 02:13:56 PM 42.4067 -93.1564 303° West 387 445 36,000  Level Minneapolis Center
Tue 02:14:57 PM 42.4694 -93.3050 300° West 384 442 36,000  Level Minneapolis Center
Tue 02:15:59 PM 42.5133 -93.4328 295° West 379 436 36,000  Level Minneapolis Center
Tue 02:17:01 PM 42.5622 -93.5642 297° West 388 447 36,000  Level Minneapolis Center
Tue 02:18:03 PM 42.6136 -93.6992 297° West 400 460 36,000  Level Minneapolis Center
Tue 02:19:05 PM 42.6636 -93.8306 297° West 398 458 36,000  Level Minneapolis Center
Tue 02:20:06 PM 42.7239 -93.9881 298° West 396 456 36,000  Level Minneapolis Center
Tue 02:21:08 PM 42.7844 -94.1147 303° West 397 457 36,000  Level Minneapolis Center
Tue 02:22:10 PM 42.8428 -94.2381 303° West 397 457 36,000  Level Minneapolis Center
Tue 02:23:12 PM 42.8922 -94.3689 297° West 394 453 36,000  Level Minneapolis Center
Tue 02:24:13 PM 42.9264 -94.4783 293° West 388 447 36,000  Level Minneapolis Center
Tue 02:25:15 PM 42.9778 -94.6389 294° West 386 444 36,000  Level Minneapolis Center
Tue 02:26:17 PM 43.0128 -94.7772 289° West 385 443 36,000  Level Minneapolis Center
Tue 02:27:19 PM 43.0525 -94.9447 288° West 387 445 36,000  Level Minneapolis Center
Tue 02:28:20 PM 43.0881 -95.0833 289° West 387 445 36,000  Level Minneapolis Center
Tue 02:29:22 PM 43.1250 -95.2217 290° West 387 445 36,000  Level Minneapolis Center
Tue 02:30:24 PM 43.1686 -95.3558 294° West 387 445 36,000  Level Minneapolis Center
Tue 02:31:26 PM 43.2111 -95.4917 293° West 387 445 36,000  Level Minneapolis Center
Tue 02:32:27 PM 43.2522 -95.6256 293° West 384 442 36,000  Level Minneapolis Center
Tue 02:33:29 PM 43.2942 -95.7572 294° West 380 437 36,000  Level Minneapolis Center
Tue 02:34:31 PM 43.3453 -95.9133 294° West 376 433 36,000  Level Minneapolis Center
Tue 02:35:33 PM 43.3872 -96.0439 294° West 374 430 36,000  Level Minneapolis Center
Tue 02:36:35 PM 43.4308 -96.1731 295° West 372 428 36,000  Level Minneapolis Center
Tue 02:37:48 PM 43.4742 -96.3006 295° West 370 426 36,000  Level Minneapolis Center
Tue 02:38:51 PM 43.5292 -96.4531 296° West 369 425 36,000  Level Minneapolis Center
Tue 02:39:52 PM 43.5803 -96.5761 300° West 371 427 36,000  Level Minneapolis Center
Tue 02:40:54 PM 43.6319 -96.7006 300° West 373 429 36,000  Level Minneapolis Center
Tue 02:41:56 PM 43.6906 -96.8492 299° West 367 422 36,000  Level Minneapolis Center
Tue 02:43:10 PM 43.7083 -97.0108 279° West 355 409 36,000  Level Minneapolis Center
Tue 02:44:12 PM 43.6836 -97.1400 255° West 351 404 36,000  Level Minneapolis Center
Tue 02:45:14 PM 43.6842 -97.2750 270° West 353 406 36,000  Level Minneapolis Center
Tue 02:46:15 PM 43.6953 -97.4086 277° West 351 404 36,000  Level Minneapolis Center
Tue 02:47:17 PM 43.7053 -97.5428 276° West 353 406 36,000  Level Minneapolis Center
Tue 02:48:19 PM 43.7125 -97.6767 274° West 350 403 36,000  Level Minneapolis Center
Tue 02:49:21 PM 43.7219 -97.8367 275° West 349 402 36,000  Level Minneapolis Center
Tue 02:50:22 PM 43.7289 -97.9442 275° West 351 404 36,000  Level Minneapolis Center
Tue 02:51:24 PM 43.7397 -98.1028 275° West 348 400 36,000  Level Minneapolis Center
Tue 02:52:26 PM 43.7486 -98.2353 275° West 346 398 36,000  Level Minneapolis Center
Tue 02:53:28 PM 43.7578 -98.3672 276° West 347 399 36,000  Level Minneapolis Center
Tue 02:54:29 PM 43.7678 -98.4981 276° West 343 395 36,000  Level Minneapolis Center
Tue 02:55:31 PM 43.7758 -98.6033 276° West 344 396 36,000  Level Minneapolis Center
Tue 02:56:33 PM 43.7897 -98.7731 277° West 343 395 36,000  Level Minneapolis Center
Tue 02:57:34 PM 43.8011 -98.9036 277° West 343 395 36,000  Level Minneapolis Center
Tue 02:58:36 PM 43.8131 -99.0350 277° West 344 396 36,000  Level Minneapolis Center
Tue 02:59:37 PM 43.8250 -99.1658 277° West 343 395 36,000  Level Minneapolis Center
Tue 03:00:39 PM 43.8378 -99.2975 278° West 344 396 36,000  Level Minneapolis Center
Tue 03:01:40 PM 43.8536 -99.4544 278° West 343 395 36,000  Level Minneapolis Center
Tue 03:02:42 PM 43.8675 -99.5858 278° West 343 395 36,000  Level Minneapolis Center
Tue 03:03:43 PM 43.8819 -99.7172 279° West 344 396 36,000  Level Minneapolis Center
Tue 03:04:45 PM 43.8975 -99.8461 280° West 341 392 36,000 -293 Level Minneapolis Center
Tue 03:05:46 PM 43.9119 -99.9775 279° West 343 395 35,400 -878 Descending Minneapolis Center
Tue 03:06:48 PM 43.9175 -100.1067 273° West 338 389 34,200 -1,317 Descending Minneapolis Center
Tue 03:07:49 PM 43.9178 -100.2381 270° West 338 389 32,700 -1,512 Descending Minneapolis Center
Tue 03:08:51 PM 43.9211 -100.3719 272° West 343 395 31,100 -1,463 Descending Minneapolis Center
Tue 03:09:52 PM 43.9250 -100.5083 272° West 350 403 29,700 -1,463 Descending Minneapolis Center
Tue 03:10:54 PM 43.9314 -100.6483 274° West 358 412 28,100 -1,317 Descending Minneapolis Center
Tue 03:11:55 PM 43.9322 -100.8186 270° West 363 418 27,000 -541 Descending Minneapolis Center
Tue 03:12:56 PM 43.9311 -100.9614 269° West 367 422 27,000  Level Minneapolis Center
Tue 03:13:58 PM 43.9294 -101.1050 269° West 369 425 27,000 -49 Level Minneapolis Center
Tue 03:14:59 PM 43.9269 -101.2514 269° West 373 429 26,900 -585 Descending Minneapolis Center
Tue 03:16:01 PM 43.9267 -101.3961 270° West 375 432 25,800 -1,111 Descending Minneapolis Center
Tue 03:16:47 PM 43.9233 -101.5053 268° West 361 415 24,900 -1,667 Descending Denver Center
Tue 03:17:49 PM 43.9219 -101.6464 269° West 363 418 22,800 -2,032 Descending Denver Center
Tue 03:18:51 PM 43.9300 -101.7850 275° West 360 414 20,700 -2,135 Descending Denver Center
Tue 03:19:33 PM 43.9447 -101.8942 281° West 356 410 19,100 -1,967 Descending Denver Center
Tue 03:19:52 PM 43.9436 -101.9183 266° West 354 407 18,700 -1,970 Descending Denver Center
Tue 03:20:40 PM 43.9567 -102.0381 279° West 336 387 16,900 -2,367 Descending Denver Center
Tue 03:21:41 PM 43.9617 -102.1517 274° West 307 353 14,400 -1,909 Descending Denver Center
Tue 03:22:08 PM 43.9608 -102.1656 265° West 321 369 14,100 -2,200 Descending Denver Center
Tue 03:22:41 PM 43.9692 -102.2675 277° West 289 333 12,200 -2,806 Descending Denver Center
Tue 03:23:10 PM 43.9697 -102.3161 271° West 285 328 11,200 -2,066 Descending Denver Center
Tue 03:23:42 PM 43.9719 -102.3700 273° West 263 303 10,100 -1,967 Descending Denver Center
Tue 03:24:11 PM 43.9711 -102.4150 269° West 272 313 9,200 -1,967 Descending Denver Center
Tue 03:24:43 PM 43.9742 -102.4667 275° West 258 297 8,100 -1,957 Descending Denver Center
Tue 03:25:43 PM 43.9703 -102.5681 267° West 255 293 6,200 -1,041 Descending Denver Center
Tue 03:26:44 PM 43.9694 -102.6597 269° West 246 283 6,000 -397 Descending Denver Center
Tue 03:27:44 PM 43.9636 -102.7497 265° West 228 262 5,400 -298 Descending Denver Center
Tue 03:28:45 PM 43.9608 -102.8300 267° West 214 246 5,400 -541 Level Denver Center
Tue 03:29:46 PM 43.9564 -102.9139 266° West 209 241 4,300 -496 Descending Denver Center
Tue 03:30:46 PM 43.9592 -102.9747 274° West 167 192 4,400 -149 Climbing Denver Center
Tue 03:31:47 PM 43.9911 -103.0189 315° West 161 185 4,000 -393 Descending Denver Center

Login

Don't have an account? Register now (free) for customized features, flight alerts, and more!